Time;durP1;ratioP1;P1;durP2;ratioP2;P2;SDS_P1;SDS_P2;PMS_P1;PMS_P2;Temp;Humidity;BMP_temperature;BMP_pressure;BME280_temperature;BME280_humidity;BME280_pressure;Samples;Min_cycle;Max_cycle;Signal;HPM_P1;HPM_P2
2024/03/08 00:01:00;;;;;;;21.83;20.93;;;18.90;51.00;;;;;;4982294;28;21010;-69
2024/03/08 00:03:28;;;;;;;23.17;22.17;;;18.90;51.00;;;;;;4985363;28;20439;-68
2024/03/08 00:05:55;;;;;;;22.60;21.70;;;18.80;50.90;;;;;;4982721;28;20512;-69
2024/03/08 00:08:22;;;;;;;23.33;22.33;;;18.80;51.00;;;;;;4982521;28;20580;-69
2024/03/08 00:10:50;;;;;;;22.20;21.30;;;18.80;51.00;;;;;;4984924;28;20449;-69
2024/03/08 00:13:17;;;;;;;25.67;24.67;;;18.80;51.00;;;;;;4985833;28;20443;-68
2024/03/08 00:15:44;;;;;;;23.37;22.37;;;18.80;51.00;;;;;;4983078;28;20471;-69
2024/03/08 00:18:11;;;;;;;22.90;21.90;;;18.80;51.00;;;;;;4982396;28;20540;-68
2024/03/08 00:20:38;;;;;;;23.87;22.83;;;18.80;51.00;;;;;;4983368;28;20444;-69
2024/03/08 00:23:05;;;;;;;23.40;22.40;;;18.80;51.00;;;;;;4985463;28;20995;-69
2024/03/08 00:25:31;;;;;;;22.63;21.73;;;18.80;51.00;;;;;;4984730;28;20470;-69
2024/03/08 00:28:00;;;;;;;22.40;21.40;;;18.80;51.00;;;;;;4982229;28;20450;-69
2024/03/08 00:30:26;;;;;;;22.30;21.40;;;18.80;50.90;;;;;;4981428;28;20472;-69
2024/03/08 00:32:53;;;;;;;22.10;21.20;;;18.80;50.90;;;;;;4984968;28;20446;-68
2024/03/08 00:35:20;;;;;;;22.00;21.00;;;18.80;50.90;;;;;;4985311;28;20470;-69
2024/03/08 00:37:47;;;;;;;22.00;21.00;;;18.80;50.90;;;;;;4982320;28;20444;-70
2024/03/08 00:40:14;;;;;;;21.77;20.87;;;18.80;50.90;;;;;;4981070;28;20996;-69
2024/03/08 00:42:41;;;;;;;21.63;20.73;;;18.80;50.80;;;;;;4983641;28;20526;-69
2024/03/08 00:45:10;;;;;;;21.30;20.40;;;18.80;50.90;;;;;;4985194;28;20509;-69
2024/03/08 00:47:37;;;;;;;22.60;21.70;;;18.80;50.90;;;;;;4983819;28;20446;-69
2024/03/08 00:50:04;;;;;;;22.30;21.30;;;18.80;50.90;;;;;;4980999;28;20448;-69
2024/03/08 00:52:31;;;;;;;22.57;21.57;;;18.80;50.80;;;;;;4981968;28;20452;-69
2024/03/08 00:54:58;;;;;;;21.83;20.93;;;18.70;50.80;;;;;;4985027;28;20447;-68
2024/03/08 00:57:24;;;;;;;21.87;20.97;;;18.70;50.80;;;;;;4984972;28;20820;-69
2024/03/08 00:59:52;;;;;;;21.57;20.67;;;18.70;50.80;;;;;;4980827;28;20568;-69
2024/03/08 01:02:22;;;;;;;21.90;21.00;;;18.70;50.80;;;;;;4981241;28;20484;-69
2024/03/08 01:04:50;;;;;;;21.90;21.00;;;18.70;50.70;;;;;;4984371;28;20447;-69
2024/03/08 01:07:16;;;;;;;21.70;20.80;;;18.70;50.70;;;;;;4984796;28;20513;-69
2024/03/08 01:09:44;;;;;;;22.20;21.20;;;18.70;50.80;;;;;;4981829;28;20443;-69
2024/03/08 01:12:10;;;;;;;21.57;20.67;;;18.70;50.70;;;;;;4981081;28;20463;-69
2024/03/08 01:14:37;;;;;;;21.83;20.93;;;18.70;50.70;;;;;;4982740;28;20973;-69
2024/03/08 01:17:04;;;;;;;22.33;21.33;;;18.70;50.70;;;;;;4983963;28;20477;-67
2024/03/08 01:19:33;;;;;;;20.73;19.93;;;18.70;50.70;;;;;;4983950;28;20482;-68
2024/03/08 01:21:59;;;;;;;21.90;21.00;;;18.70;50.70;;;;;;4981299;28;21116;-67
2024/03/08 01:24:26;;;;;;;22.47;21.47;;;18.70;50.70;;;;;;4980839;28;20448;-68
2024/03/08 01:26:53;;;;;;;22.37;21.47;;;18.70;50.70;;;;;;4974821;28;20462;-67
2024/03/08 01:29:20;;;;;;;23.00;22.00;;;18.70;50.70;;;;;;4984398;28;21019;-68
2024/03/08 01:31:46;;;;;;;21.40;20.50;;;18.70;50.70;;;;;;4981858;28;20450;-68
2024/03/08 01:34:13;;;;;;;21.63;20.80;;;18.60;50.60;;;;;;4980925;28;20531;-67
2024/03/08 01:36:41;;;;;;;21.83;20.90;;;18.60;50.70;;;;;;4981682;28;20463;-67
2024/03/08 01:39:09;;;;;;;22.53;21.60;;;18.60;50.70;;;;;;4984320;28;20483;-68
2024/03/08 01:41:35;;;;;;;22.43;21.53;;;18.60;50.60;;;;;;4983269;28;20835;-67
2024/03/08 01:44:03;;;;;;;22.17;21.27;;;18.60;50.60;;;;;;4980443;28;20459;-68
2024/03/08 01:46:30;;;;;;;21.70;20.80;;;18.60;50.60;;;;;;4979727;28;20470;-68
2024/03/08 01:48:58;;;;;;;21.70;20.77;;;18.60;50.60;;;;;;4983422;28;20465;-68
2024/03/08 01:51:24;;;;;;;21.90;21.00;;;18.60;50.60;;;;;;4984145;28;20932;-68
2024/03/08 01:53:53;;;;;;;21.67;20.77;;;18.60;50.60;;;;;;4981215;28;20447;-68
2024/03/08 01:56:20;;;;;;;21.90;20.90;;;18.60;50.60;;;;;;4980687;28;20558;-68
2024/03/08 01:58:47;;;;;;;22.23;21.23;;;18.60;50.60;;;;;;4982020;28;20941;-68
2024/03/08 02:01:15;;;;;;;21.47;20.67;;;18.60;50.60;;;;;;4984046;28;20450;-67
2024/03/08 02:03:43;;;;;;;22.30;21.33;;;18.60;50.60;;;;;;4982097;28;20466;-68
2024/03/08 02:06:10;;;;;;;21.50;20.70;;;18.60;50.60;;;;;;4980566;28;20471;-68
2024/03/08 02:08:37;;;;;;;22.50;21.50;;;18.60;50.60;;;;;;4980248;28;20451;-68
2024/03/08 02:11:06;;;;;;;22.00;21.20;;;18.60;50.60;;;;;;4980788;28;20444;-68
2024/03/08 02:13:34;;;;;;;22.43;21.53;;;18.60;50.60;;;;;;4980666;28;20440;-68
2024/03/08 02:16:01;;;;;;;22.00;21.10;;;18.60;50.60;;;;;;4983694;28;20549;-67
2024/03/08 02:18:29;;;;;;;21.80;20.90;;;18.60;50.60;;;;;;4976295;28;20530;-68
2024/03/08 02:20:59;;;;;;;22.30;21.37;;;18.50;50.50;;;;;;4972643;28;20476;-67
2024/03/08 02:23:26;;;;;;;21.17;20.37;;;18.50;50.50;;;;;;4980261;28;20447;-68
2024/03/08 02:25:53;;;;;;;22.87;21.97;;;18.50;51.00;;;;;;4983188;28;21010;-67
2024/03/08 02:28:21;;;;;;;22.53;21.63;;;18.50;50.50;;;;;;4980396;28;20452;-67
2024/03/08 02:30:47;;;;;;;22.30;21.40;;;18.50;50.50;;;;;;4982603;28;20443;-67
2024/03/08 02:33:16;;;;;;;21.73;20.93;;;18.50;50.50;;;;;;4983474;28;20451;-68
2024/03/08 02:35:45;;;;;;;22.33;21.43;;;18.50;50.50;;;;;;4981490;28;20458;-67
2024/03/08 02:38:16;;;;;;;21.90;21.00;;;18.50;50.50;;;;;;4980450;28;20487;-67
2024/03/08 02:40:43;;;;;;;22.03;21.13;;;18.50;50.60;;;;;;4981856;28;20873;-67
2024/03/08 02:43:09;;;;;;;22.27;21.40;;;18.50;50.50;;;;;;4983385;28;20447;-67
2024/03/08 02:45:36;;;;;;;22.40;21.40;;;18.50;50.60;;;;;;4982381;28;20463;-67
2024/03/08 02:48:03;;;;;;;21.90;21.00;;;18.50;50.50;;;;;;4980422;28;20949;-67
2024/03/08 02:50:30;;;;;;;22.03;21.13;;;18.50;50.50;;;;;;4980249;28;20464;-67
2024/03/08 02:52:56;;;;;;;22.03;21.03;;;18.50;50.50;;;;;;4983037;28;20446;-67
2024/03/08 02:55:25;;;;;;;22.20;21.20;;;18.50;50.50;;;;;;4982749;28;20470;-67
2024/03/08 02:57:54;;;;;;;21.50;20.60;;;18.50;50.50;;;;;;4983647;28;20459;-66
2024/03/08 03:00:22;;;;;;;22.60;21.60;;;18.40;50.40;;;;;;4983690;28;20858;-66
2024/03/08 03:02:52;;;;;;;21.80;20.90;;;18.40;50.40;;;;;;4985510;28;20511;-67
2024/03/08 03:05:18;;;;;;;26.60;25.40;;;18.40;50.40;;;;;;4986479;28;20471;-67
2024/03/08 03:07:45;;;;;;;23.30;22.30;;;18.50;50.50;;;;;;4985559;28;20446;-67
2024/03/08 03:10:16;;;;;;;24.50;23.40;;;18.40;50.40;;;;;;4983647;28;20962;-68
2024/03/08 03:12:45;;;;;;;23.23;22.23;;;18.40;50.30;;;;;;4984435;28;21024;-67
2024/03/08 03:15:12;;;;;;;23.77;22.77;;;18.40;50.30;;;;;;4986096;28;20478;-67
2024/03/08 03:17:39;;;;;;;23.43;22.53;;;18.40;50.40;;;;;;4986074;28;20518;-67
2024/03/08 03:20:10;;;;;;;23.00;22.10;;;18.40;50.40;;;;;;4983245;28;20490;-67
2024/03/08 03:22:38;;;;;;;22.80;21.90;;;18.40;50.40;;;;;;4983500;28;20447;-67
2024/03/08 03:25:06;;;;;;;23.50;22.60;;;18.40;50.40;;;;;;4983158;28;20881;-67
2024/03/08 03:27:33;;;;;;;23.13;22.13;;;18.40;50.40;;;;;;4983462;28;20448;-67
2024/03/08 03:30:20;;;;;;;23.47;22.47;;;18.40;50.40;;;;;;4975529;28;20527;-67
2024/03/08 03:32:47;;;;;;;23.80;22.80;;;18.40;50.40;;;;;;4982816;28;20937;-67
2024/03/08 03:35:15;;;;;;;23.40;22.40;;;18.30;50.30;;;;;;4983183;28;21319;-67
2024/03/08 03:37:45;;;;;;;22.07;21.07;;;18.30;50.30;;;;;;4983967;28;20448;-66
2024/03/08 03:40:12;;;;;;;22.50;21.50;;;18.30;50.40;;;;;;4986260;28;20482;-67
2024/03/08 03:42:39;;;;;;;22.47;21.47;;;18.40;50.40;;;;;;4985254;28;20450;-67
2024/03/08 03:45:09;;;;;;;21.93;21.10;;;18.30;50.30;;;;;;4973722;28;20439;-67
2024/03/08 03:47:37;;;;;;;22.03;21.13;;;18.30;50.30;;;;;;4986060;28;20530;-67
2024/03/08 03:50:05;;;;;;;22.03;21.03;;;18.30;50.30;;;;;;4982893;28;20441;-67
2024/03/08 03:52:32;;;;;;;21.93;20.90;;;18.40;50.40;;;;;;4982674;28;20444;-67
2024/03/08 03:54:58;;;;;;;22.73;21.73;;;18.30;50.20;;;;;;4983991;28;20507;-67
2024/03/08 03:57:25;;;;;;;22.30;21.37;;;18.30;50.20;;;;;;4982820;28;20444;-68
2024/03/08 03:59:52;;;;;;;22.30;21.30;;;18.30;50.20;;;;;;4984872;28;20487;-67
2024/03/08 04:02:20;;;;;;;23.00;22.00;;;18.30;50.20;;;;;;4985745;28;20808;-67
2024/03/08 04:04:47;;;;;;;22.80;21.90;;;18.30;50.20;;;;;;4983592;28;20447;-67
2024/03/08 04:07:14;;;;;;;22.73;21.83;;;18.30;50.20;;;;;;4981614;28;20464;-67
2024/03/08 04:09:41;;;;;;;22.63;21.73;;;18.30;50.20;;;;;;4982941;28;20447;-67
2024/03/08 04:12:09;;;;;;;23.03;22.03;;;18.30;50.20;;;;;;4985877;28;20924;-68
2024/03/08 04:14:36;;;;;;;23.30;22.40;;;18.30;50.20;;;;;;4984992;28;20537;-67
2024/03/08 04:17:03;;;;;;;23.33;22.33;;;18.30;50.20;;;;;;4974425;28;20547;-67
2024/03/08 04:19:31;;;;;;;23.20;22.30;;;18.30;50.20;;;;;;4982577;28;20444;-67
2024/03/08 04:21:58;;;;;;;23.70;22.70;;;18.30;50.20;;;;;;4985010;28;20515;-67
2024/03/08 04:24:25;;;;;;;23.47;22.47;;;18.20;50.20;;;;;;4984373;28;20439;-67
2024/03/08 04:26:52;;;;;;;22.33;21.43;;;18.20;50.20;;;;;;4985452;28;20990;-68
2024/03/08 04:29:19;;;;;;;22.37;21.47;;;18.20;50.20;;;;;;4985863;28;20522;-68
2024/03/08 04:31:46;;;;;;;23.70;22.60;;;18.20;50.20;;;;;;4984230;28;20435;-68
2024/03/08 04:34:14;;;;;;;22.77;21.87;;;18.20;50.70;;;;;;4980913;28;20450;-68
2024/03/08 04:36:42;;;;;;;22.83;21.93;;;18.20;50.20;;;;;;4984699;28;20868;-68
2024/03/08 04:39:12;;;;;;;22.97;22.07;;;18.20;50.10;;;;;;4982079;28;20448;-68
2024/03/08 04:41:39;;;;;;;22.57;21.60;;;18.20;50.10;;;;;;4982234;28;20837;-67
2024/03/08 04:44:06;;;;;;;23.40;22.30;;;18.20;50.10;;;;;;4984087;28;20443;-68
2024/03/08 04:46:35;;;;;;;22.87;21.97;;;18.20;50.10;;;;;;4985125;28;20473;-67
2024/03/08 04:49:01;;;;;;;23.60;22.60;;;18.20;50.10;;;;;;4981811;28;20443;-68
2024/03/08 04:51:28;;;;;;;23.67;22.67;;;18.30;50.10;;;;;;4981773;28;20455;-68
2024/03/08 04:53:57;;;;;;;22.90;22.00;;;18.20;50.00;;;;;;4982890;28;20440;-68
2024/03/08 04:56:23;;;;;;;22.90;22.00;;;18.20;50.00;;;;;;4984970;28;20467;-68
2024/03/08 04:58:50;;;;;;;23.27;22.27;;;18.20;50.00;;;;;;4983328;28;20940;-69
2024/03/08 05:01:17;;;;;;;23.63;22.53;;;18.20;50.00;;;;;;4981375;28;20490;-68
2024/03/08 05:03:43;;;;;;;23.23;22.23;;;18.30;50.10;;;;;;4977048;28;20448;-68
2024/03/08 05:06:10;;;;;;;24.47;23.47;;;18.20;50.00;;;;;;4984952;28;20470;-68
2024/03/08 05:08:37;;;;;;;24.47;23.40;;;18.20;50.00;;;;;;4984755;28;20450;-68
2024/03/08 05:11:06;;;;;;;24.40;23.40;;;18.20;50.00;;;;;;4973683;28;20435;-68
2024/03/08 05:13:34;;;;;;;24.47;23.47;;;18.20;50.00;;;;;;4980414;28;20527;-68
2024/03/08 05:16:00;;;;;;;24.87;23.77;;;18.10;50.00;;;;;;4984091;28;20478;-69
2024/03/08 05:18:28;;;;;;;24.37;23.37;;;18.10;50.00;;;;;;4984569;28;20449;-68
2024/03/08 05:20:54;;;;;;;25.73;24.63;;;18.10;50.10;;;;;;4981422;28;20570;-68
2024/03/08 05:23:22;;;;;;;24.60;23.60;;;18.10;50.10;;;;;;4980123;28;20447;-68
2024/03/08 05:25:49;;;;;;;24.73;23.67;;;18.10;50.10;;;;;;4976817;28;20477;-69
2024/03/08 05:28:17;;;;;;;24.00;23.00;;;18.10;50.10;;;;;;4978922;28;20445;-68
2024/03/08 05:30:43;;;;;;;24.67;23.67;;;18.10;50.10;;;;;;4978531;28;20440;-68
2024/03/08 05:33:11;;;;;;;25.10;24.00;;;18.10;50.10;;;;;;4984090;28;20439;-68
2024/03/08 05:35:37;;;;;;;25.40;24.30;;;18.10;50.10;;;;;;4984519;28;20995;-68
2024/03/08 05:38:04;;;;;;;25.40;24.30;;;18.10;50.10;;;;;;4980509;28;20436;-67
2024/03/08 05:40:32;;;;;;;24.50;23.50;;;18.10;50.10;;;;;;4980811;28;20490;-68
2024/03/08 05:42:59;;;;;;;23.37;22.47;;;18.10;50.10;;;;;;4983146;28;20506;-68
2024/03/08 05:45:27;;;;;;;23.93;22.93;;;18.00;50.00;;;;;;4984131;28;20521;-68
2024/03/08 05:47:54;;;;;;;24.43;23.43;;;18.10;50.10;;;;;;4982269;28;20824;-68
2024/03/08 05:50:20;;;;;;;24.83;23.80;;;18.00;50.00;;;;;;4980170;28;20439;-68
2024/03/08 05:52:49;;;;;;;24.37;23.40;;;18.00;50.00;;;;;;4981491;28;20455;-68
2024/03/08 05:55:16;;;;;;;25.87;24.80;;;18.00;50.00;;;;;;4984090;28;20466;-68
2024/03/08 05:57:43;;;;;;;24.50;23.50;;;18.00;50.00;;;;;;4983829;28;20540;-67
2024/03/08 06:00:11;;;;;;;24.77;23.77;;;18.00;50.00;;;;;;4979794;28;20929;-68
2024/03/08 06:02:40;;;;;;;25.60;24.50;;;18.00;50.00;;;;;;4980333;28;20518;-67
2024/03/08 06:05:09;;;;;;;24.33;23.23;;;18.00;50.00;;;;;;4980767;28;20452;-67
2024/03/08 06:07:36;;;;;;;25.00;23.90;;;18.00;50.00;;;;;;4980663;28;20447;-68
2024/03/08 06:10:03;;;;;;;24.53;23.43;;;18.00;50.00;;;;;;4983982;28;20436;-67
2024/03/08 06:12:33;;;;;;;25.63;24.53;;;18.00;50.00;;;;;;4980475;28;20856;-67
2024/03/08 06:15:00;;;;;;;26.40;25.20;;;18.00;50.00;;;;;;4982901;28;20820;-68
2024/03/08 06:17:26;;;;;;;26.40;25.17;;;18.00;50.00;;;;;;4983256;28;20834;-67
2024/03/08 06:19:55;;;;;;;24.70;23.67;;;18.00;50.00;;;;;;4982320;28;20443;-67
2024/03/08 06:22:21;;;;;;;25.33;24.13;;;18.00;50.00;;;;;;4980162;28;21032;-68
2024/03/08 06:24:48;;;;;;;25.03;23.83;;;18.00;50.00;;;;;;4981194;28;20448;-67
2024/03/08 06:27:15;;;;;;;25.30;23.90;;;18.00;49.90;;;;;;4983257;28;20542;-67
2024/03/08 06:29:42;;;;;;;25.33;24.23;;;18.00;50.00;;;;;;4983886;28;20454;-67
2024/03/08 06:32:08;;;;;;;25.53;24.43;;;18.00;50.00;;;;;;4975330;28;20448;-67
2024/03/08 06:34:35;;;;;;;25.57;24.47;;;18.00;50.00;;;;;;4983974;28;20821;-67
2024/03/08 06:37:03;;;;;;;24.80;23.70;;;18.00;50.10;;;;;;4986165;28;20992;-67
2024/03/08 06:39:31;;;;;;;24.90;23.80;;;18.00;50.10;;;;;;4987547;28;20446;-67
2024/03/08 06:41:58;;;;;;;25.80;24.70;;;18.00;50.20;;;;;;4985233;28;20480;-68
2024/03/08 06:44:25;;;;;;;27.73;26.33;;;17.90;50.20;;;;;;4979715;28;20471;-69
2024/03/08 06:46:52;;;;;;;29.63;27.47;;;18.00;50.40;;;;;;4981433;28;21078;-69
2024/03/08 06:49:19;;;;;;;31.43;29.13;;;18.10;51.50;;;;;;4978028;28;20435;-68
2024/03/08 06:51:46;;;;;;;32.87;30.10;;;18.10;53.90;;;;;;4987021;28;20442;-67
2024/03/08 06:54:14;;;;;;;34.97;31.23;;;18.10;57.00;;;;;;4983543;28;20440;-68
2024/03/08 06:56:40;;;;;;;30.33;28.20;;;18.10;59.10;;;;;;4983720;28;20834;-68
2024/03/08 06:59:10;;;;;;;29.90;27.60;;;18.00;59.30;;;;;;4986782;28;20443;-68
2024/03/08 07:01:38;;;;;;;31.90;28.67;;;18.00;59.00;;;;;;4987078;28;20860;-68
2024/03/08 07:04:05;;;;;;;29.53;27.00;;;18.00;58.70;;;;;;4983662;28;20527;-68
2024/03/08 07:06:34;;;;;;;30.73;28.20;;;18.00;58.40;;;;;;4983623;28;20956;-67
2024/03/08 07:09:00;;;;;;;27.83;25.97;;;18.00;58.10;;;;;;4985603;28;20447;-69
2024/03/08 07:11:28;;;;;;;29.23;27.50;;;18.00;57.80;;;;;;4987094;28;20442;-68
2024/03/08 07:13:55;;;;;;;28.90;27.07;;;18.00;57.50;;;;;;4984906;28;20974;-69
2024/03/08 07:16:22;;;;;;;28.53;26.73;;;18.00;57.20;;;;;;4983579;28;20472;-67
2024/03/08 07:18:52;;;;;;;29.00;26.70;;;18.00;56.90;;;;;;4983838;28;20440;-69
2024/03/08 07:21:19;;;;;;;30.20;27.60;;;18.00;56.70;;;;;;4986729;28;20561;-68
2024/03/08 07:24:04;;;;;;;28.70;26.80;;;18.00;56.50;;;;;;4986151;28;20447;-68
2024/03/08 07:26:32;;;;;;;29.93;27.90;;;18.00;56.30;;;;;;4983177;28;20916;-68
2024/03/08 07:29:00;;;;;;;30.10;28.17;;;18.00;56.10;;;;;;4984913;28;20456;-69
2024/03/08 07:31:34;;;;;;;29.07;27.20;;;18.00;55.90;;;;;;4986445;28;20932;-68
2024/03/08 07:34:03;;;;;;;30.97;28.70;;;18.00;55.80;;;;;;4984017;28;20453;-68
2024/03/08 07:36:29;;;;;;;30.57;28.47;;;18.00;55.60;;;;;;4983001;28;20475;-68
2024/03/08 07:38:57;;;;;;;29.40;27.40;;;17.90;55.50;;;;;;4984391;28;20439;-67
2024/03/08 07:41:23;;;;;;;30.73;28.53;;;17.90;55.40;;;;;;4986145;28;20487;-68
2024/03/08 07:43:52;;;;;;;29.20;27.50;;;17.90;55.30;;;;;;4984374;28;20451;-67
2024/03/08 07:46:18;;;;;;;28.73;26.97;;;17.90;55.10;;;;;;4982879;28;20471;-67
2024/03/08 07:48:46;;;;;;;30.00;27.90;;;17.90;55.10;;;;;;4982909;28;20451;-67
2024/03/08 07:51:12;;;;;;;29.13;27.30;;;17.90;55.00;;;;;;4974946;28;20518;-68
2024/03/08 07:53:41;;;;;;;30.20;28.30;;;17.90;54.90;;;;;;4982396;28;20440;-67
2024/03/08 07:56:09;;;;;;;29.50;27.90;;;17.90;54.80;;;;;;4985253;28;20891;-67
2024/03/08 07:58:36;;;;;;;29.27;27.50;;;17.90;54.70;;;;;;4986062;28;21433;-68
2024/03/08 08:01:04;;;;;;;31.27;28.73;;;17.90;54.60;;;;;;4983590;28;20482;-67
2024/03/08 08:03:31;;;;;;;29.00;27.40;;;17.90;54.60;;;;;;4982283;28;20467;-67
2024/03/08 08:05:58;;;;;;;30.57;28.40;;;17.90;54.60;;;;;;4983770;28;20475;-68
2024/03/08 08:08:26;;;;;;;30.10;28.50;;;17.90;54.50;;;;;;4985830;28;20443;-68
2024/03/08 08:10:52;;;;;;;28.93;27.13;;;17.90;54.40;;;;;;4985022;28;20455;-68
2024/03/08 08:13:19;;;;;;;28.80;27.13;;;17.90;54.30;;;;;;4982220;28;20440;-68
2024/03/08 08:15:46;;;;;;;28.03;26.40;;;17.90;54.30;;;;;;4982329;28;20467;-68
2024/03/08 08:18:14;;;;;;;28.80;26.97;;;17.90;54.20;;;;;;4985417;28;20478;-67
2024/03/08 08:20:40;;;;;;;27.40;25.83;;;17.90;54.10;;;;;;4985359;28;20455;-68
2024/03/08 08:23:08;;;;;;;27.97;26.27;;;17.90;54.00;;;;;;4982531;28;20446;-68
2024/03/08 08:25:35;;;;;;;29.60;27.90;;;17.90;53.90;;;;;;4982148;28;20471;-67
2024/03/08 08:28:03;;;;;;;27.90;26.27;;;17.90;53.90;;;;;;4983956;28;20502;-67
2024/03/08 08:30:32;;;;;;;27.37;25.77;;;17.90;53.80;;;;;;4985401;28;20451;-68
2024/03/08 08:33:00;;;;;;;28.03;26.20;;;17.90;53.70;;;;;;4983358;28;20530;-67
2024/03/08 08:35:29;;;;;;;27.63;26.10;;;17.90;53.70;;;;;;4981979;28;20531;-67
2024/03/08 08:37:57;;;;;;;28.87;27.27;;;17.90;53.60;;;;;;4982854;28;20934;-67
2024/03/08 08:40:24;;;;;;;28.87;27.30;;;17.90;53.60;;;;;;4985196;28;20822;-67
2024/03/08 08:42:50;;;;;;;28.03;26.63;;;17.90;53.50;;;;;;4984432;28;20487;-69
2024/03/08 08:45:17;;;;;;;29.17;27.47;;;17.90;53.40;;;;;;4981735;28;20464;-68
2024/03/08 08:47:44;;;;;;;28.17;26.53;;;17.90;53.30;;;;;;4981914;28;21012;-68
2024/03/08 08:50:12;;;;;;;27.57;26.17;;;17.90;53.30;;;;;;4984599;28;20443;-68
2024/03/08 08:52:40;;;;;;;29.27;27.33;;;17.90;53.20;;;;;;4984522;28;20828;-68
2024/03/08 08:55:07;;;;;;;27.40;25.90;;;17.90;53.10;;;;;;4982112;28;20449;-68
2024/03/08 08:57:35;;;;;;;29.37;27.80;;;18.00;53.10;;;;;;4981368;28;20451;-68
2024/03/08 09:00:01;;;;;;;28.30;26.90;;;18.00;53.00;;;;;;4982972;28;20452;-68
2024/03/08 09:02:29;;;;;;;28.53;27.03;;;18.00;53.00;;;;;;4984468;28;20485;-67
2024/03/08 09:04:56;;;;;;;28.13;26.50;;;17.90;52.90;;;;;;4983742;28;20454;-67
2024/03/08 09:07:23;;;;;;;27.27;25.67;;;18.00;52.90;;;;;;4981488;28;20448;-68
2024/03/08 09:09:52;;;;;;;27.07;25.57;;;18.00;52.90;;;;;;4981152;28;20452;-70
2024/03/08 09:12:18;;;;;;;27.20;25.70;;;18.00;52.90;;;;;;4984085;28;20451;-68
2024/03/08 09:14:45;;;;;;;27.77;26.27;;;17.90;52.70;;;;;;4984446;28;20447;-69
2024/03/08 09:17:12;;;;;;;27.27;25.77;;;18.00;52.80;;;;;;4981473;28;20464;-68
2024/03/08 09:19:39;;;;;;;25.70;24.40;;;17.90;52.70;;;;;;4981073;28;20448;-68
2024/03/08 09:22:06;;;;;;;28.10;26.60;;;17.90;52.70;;;;;;4983012;28;20482;-68
2024/03/08 09:24:33;;;;;;;27.53;26.13;;;18.00;52.70;;;;;;4984070;28;20455;-67
2024/03/08 09:27:01;;;;;;;29.60;27.80;;;18.00;52.70;;;;;;4983087;28;20471;-68
2024/03/08 09:29:28;;;;;;;27.13;25.63;;;18.00;52.60;;;;;;4981055;28;20444;-68
2024/03/08 09:31:55;;;;;;;28.63;27.20;;;17.90;52.60;;;;;;4981469;28;20526;-67
2024/03/08 09:34:21;;;;;;;28.10;26.63;;;17.90;52.60;;;;;;4983852;28;20443;-69
2024/03/08 09:36:48;;;;;;;26.90;25.57;;;18.00;52.60;;;;;;4984271;28;20459;-68
2024/03/08 09:39:16;;;;;;;28.10;26.70;;;18.00;52.60;;;;;;4981142;28;20440;-68
2024/03/08 09:41:44;;;;;;;26.87;25.43;;;17.90;52.50;;;;;;4980829;28;20475;-67
2024/03/08 09:44:12;;;;;;;27.53;25.93;;;17.90;52.50;;;;;;4982973;28;20452;-67
2024/03/08 09:46:39;;;;;;;28.87;27.00;;;17.90;52.50;;;;;;4984103;28;20470;-68
2024/03/08 09:49:07;;;;;;;27.40;26.00;;;17.90;52.50;;;;;;4982044;28;20898;-68
2024/03/08 09:51:35;;;;;;;28.00;26.60;;;17.90;52.50;;;;;;4980637;28;20471;-68
2024/03/08 09:54:04;;;;;;;27.00;25.60;;;17.90;52.50;;;;;;4981656;28;20475;-68
2024/03/08 09:56:33;;;;;;;26.37;25.07;;;17.90;52.40;;;;;;4983951;28;20494;-69
2024/03/08 09:59:42;;;;;;;26.23;24.90;;;17.90;52.40;;;;;;4982804;28;20446;-69
2024/03/08 10:02:14;;;;;;;26.30;25.10;;;17.90;52.40;;;;;;4982295;28;20575;-68
2024/03/08 10:04:42;;;;;;;27.57;26.17;;;17.90;52.30;;;;;;4983903;28;20971;-68
2024/03/08 10:07:08;;;;;;;26.77;25.47;;;17.90;52.30;;;;;;4981052;28;20473;-69
2024/03/08 10:09:35;;;;;;;27.20;25.70;;;17.90;52.30;;;;;;4980577;28;20440;-68
2024/03/08 10:12:02;;;;;;;27.13;25.70;;;17.90;52.30;;;;;;4981806;28;20483;-70
2024/03/08 10:14:29;;;;;;;26.83;25.50;;;17.90;52.30;;;;;;4983578;28;20794;-68
2024/03/08 10:16:59;;;;;;;27.20;25.90;;;17.90;52.30;;;;;;4983207;28;20470;-68
2024/03/08 10:19:29;;;;;;;27.70;26.30;;;17.90;52.30;;;;;;4980626;28;20503;-68
2024/03/08 10:21:58;;;;;;;26.83;25.53;;;17.90;52.20;;;;;;4980743;28;20573;-68
2024/03/08 10:24:25;;;;;;;27.43;26.13;;;17.90;52.20;;;;;;4983323;28;20538;-69
2024/03/08 10:26:54;;;;;;;26.30;25.00;;;17.90;52.20;;;;;;4983693;28;20530;-68
2024/03/08 10:29:20;;;;;;;27.43;26.03;;;17.90;52.20;;;;;;4972770;28;20495;-68
2024/03/08 10:31:47;;;;;;;27.10;25.80;;;17.90;52.20;;;;;;4980344;28;20447;-68
2024/03/08 10:34:14;;;;;;;28.13;26.87;;;17.90;52.20;;;;;;4982647;28;20450;-68
2024/03/08 10:36:42;;;;;;;27.03;25.70;;;17.90;52.20;;;;;;4983673;28;20546;-69
2024/03/08 10:39:22;;;;;;;28.20;26.83;;;17.90;52.20;;;;;;4981728;28;20798;-69
2024/03/08 10:41:54;;;;;;;28.50;27.20;;;17.90;52.20;;;;;;4980243;28;20490;-68
2024/03/08 10:44:34;;;;;;;30.37;28.97;;;17.90;52.10;;;;;;4972222;28;20439;-68
2024/03/08 10:47:05;;;;;;;28.67;27.37;;;17.90;52.10;;;;;;4981060;28;20463;-69
2024/03/08 10:49:34;;;;;;;28.30;26.90;;;17.90;52.10;;;;;;4983666;28;20963;-68
2024/03/08 10:52:05;;;;;;;28.93;27.70;;;17.90;52.10;;;;;;4982511;28;20445;-69
2024/03/08 10:54:34;;;;;;;28.60;27.20;;;17.90;52.00;;;;;;4979811;28;20458;-68
2024/03/08 10:57:05;;;;;;;27.70;26.40;;;17.90;52.00;;;;;;4980821;28;20479;-68
2024/03/08 10:59:33;;;;;;;28.10;26.80;;;17.90;52.00;;;;;;4983593;28;20586;-68
2024/03/08 11:02:00;;;;;;;27.27;26.07;;;17.90;51.90;;;;;;4982713;28;20494;-69
2024/03/08 11:04:29;;;;;;;27.63;26.40;;;17.90;51.90;;;;;;4979875;28;20810;-68
2024/03/08 11:07:06;;;;;;;28.20;26.90;;;17.90;52.00;;;;;;4979961;28;20472;-68
2024/03/08 11:09:33;;;;;;;29.53;28.23;;;17.90;51.90;;;;;;4973851;28;20535;-68
2024/03/08 11:12:19;;;;;;;29.10;27.90;;;17.90;51.90;;;;;;4980423;28;20443;-68
2024/03/08 11:14:48;;;;;;;28.63;27.33;;;17.90;51.90;;;;;;4983368;28;20450;-67
2024/03/08 11:17:16;;;;;;;28.93;27.60;;;17.90;51.90;;;;;;4980529;28;20477;-67
2024/03/08 11:19:47;;;;;;;29.17;27.87;;;17.90;52.00;;;;;;4983160;28;20955;-68
2024/03/08 11:22:24;;;;;;;29.63;28.27;;;17.90;52.00;;;;;;4985685;28;20491;-68
2024/03/08 11:24:51;;;;;;;29.20;27.90;;;17.90;52.00;;;;;;4986771;28;20454;-68
2024/03/08 11:27:18;;;;;;;30.87;29.57;;;17.90;52.00;;;;;;4983714;28;20460;-68
2024/03/08 11:29:44;;;;;;;29.00;27.70;;;17.90;52.00;;;;;;4983358;28;20447;-68
2024/03/08 11:32:12;;;;;;;29.37;27.87;;;17.80;51.90;;;;;;4985222;28;20451;-68
2024/03/08 11:34:44;;;;;;;29.07;27.80;;;17.90;52.00;;;;;;4986062;28;20816;-68
2024/03/08 11:37:15;;;;;;;28.13;26.93;;;17.90;52.00;;;;;;4984475;28;20466;-68
2024/03/08 11:39:48;;;;;;;29.70;28.40;;;17.90;51.90;;;;;;4982948;28;20863;-69
2024/03/08 11:42:15;;;;;;;28.77;27.40;;;17.90;51.90;;;;;;4985230;28;20909;-67
2024/03/08 11:44:44;;;;;;;29.77;28.50;;;17.90;51.90;;;;;;4986183;28;20454;-68
2024/03/08 11:47:11;;;;;;;28.90;27.70;;;17.90;51.90;;;;;;4984275;28;20467;-68
2024/03/08 11:49:38;;;;;;;28.37;27.17;;;17.90;51.90;;;;;;4982879;28;20448;-70
2024/03/08 11:52:05;;;;;;;29.10;27.90;;;17.90;51.90;;;;;;4983690;28;20444;-68
2024/03/08 11:54:32;;;;;;;28.60;27.33;;;17.90;51.80;;;;;;4985881;28;20451;-67
2024/03/08 11:57:00;;;;;;;28.33;27.13;;;17.90;51.80;;;;;;4985825;28;20517;-69
2024/03/08 11:59:28;;;;;;;28.27;27.07;;;17.90;51.80;;;;;;4982870;28;20934;-68
2024/03/08 12:02:04;;;;;;;28.63;27.27;;;18.00;51.80;;;;;;4982752;28;20452;-67
2024/03/08 12:04:31;;;;;;;27.90;26.70;;;17.90;51.70;;;;;;4975038;28;20444;-68
2024/03/08 12:07:01;;;;;;;28.60;27.20;;;18.00;51.80;;;;;;4982364;28;20515;-67
2024/03/08 12:09:28;;;;;;;28.47;27.07;;;18.00;51.80;;;;;;4975239;28;20436;-68
2024/03/08 12:11:55;;;;;;;27.40;26.20;;;18.00;51.70;;;;;;4982467;28;20451;-68
2024/03/08 12:14:24;;;;;;;27.67;26.50;;;18.00;51.70;;;;;;4985153;28;20466;-68
2024/03/08 12:16:52;;;;;;;29.30;28.10;;;18.00;51.60;;;;;;4985554;28;20474;-69
2024/03/08 12:19:19;;;;;;;29.43;28.23;;;18.10;51.60;;;;;;4983050;28;20498;-69
2024/03/08 12:21:48;;;;;;;28.10;26.90;;;18.10;51.60;;;;;;4982261;28;20447;-70
2024/03/08 12:24:19;;;;;;;28.20;27.00;;;18.10;51.60;;;;;;4983963;28;20571;-69
2024/03/08 12:26:48;;;;;;;28.37;27.20;;;18.10;51.60;;;;;;4985410;28;20467;-70
2024/03/08 12:29:20;;;;;;;28.73;27.53;;;18.10;51.50;;;;;;4983168;28;20451;-70
2024/03/08 12:31:49;;;;;;;29.00;27.80;;;18.10;51.50;;;;;;4982132;28;20483;-70